<?xml version="1.0" encoding="UTF-8" standalone="no" ?>
<gpx xmlns="http://www.topografix.com/GPX/1/1" xmlns:xsi="http://www.w3.org/2001/XMLSchema-instance" xsi:schemaLocation="http://www.topografix.com/GPX/1/1 http://www.topografix.com/GPX/1/1/gpx.xsd" version="1.1" creator="VisuGPX - https://www.visugpx.com">
  <metadata>
    <name>AVEYZIEUX - 22 FEV 2025</name>
    <desc><![CDATA[LA GIMONT - FONTANES]]></desc>
  </metadata>
  <trk>
    <name><![CDATA[Trace 1771750805000]]></name>
    <extensions>
      <line xmlns="http://www.topografix.com/GPX/gpx_style/0/2">
        <color>0000FF</color>
        <opacity>0.85</opacity>
        <width>6</width>
      </line>
    </extensions>
    <trkseg>
      <trkpt lat="45.56413" lon="4.37425">
        <ele>585</ele>
        <time>2026-02-22T09:00:05.000Z</time>
      </trkpt>
      <trkpt lat="45.56415" lon="4.37427">
        <ele>585.3</ele>
        <time>2026-02-22T09:01:46.000Z</time>
      </trkpt>
      <trkpt lat="45.56422" lon="4.37479">
        <ele>587.6</ele>
        <time>2026-02-22T09:02:46.000Z</time>
      </trkpt>
      <trkpt lat="45.5642" lon="4.37557">
        <ele>590.1</ele>
        <time>2026-02-22T09:03:46.000Z</time>
      </trkpt>
      <trkpt lat="45.56429" lon="4.37644">
        <ele>596.5</ele>
        <time>2026-02-22T09:04:46.000Z</time>
      </trkpt>
      <trkpt lat="45.56465" lon="4.3775">
        <ele>598</ele>
        <time>2026-02-22T09:05:46.000Z</time>
      </trkpt>
      <trkpt lat="45.56483" lon="4.37876">
        <ele>588.9</ele>
        <time>2026-02-22T09:06:46.000Z</time>
      </trkpt>
      <trkpt lat="45.56501" lon="4.37968">
        <ele>584.8</ele>
        <time>2026-02-22T09:07:46.000Z</time>
      </trkpt>
      <trkpt lat="45.56532" lon="4.38043">
        <ele>582</ele>
        <time>2026-02-22T09:08:46.000Z</time>
      </trkpt>
      <trkpt lat="45.56575" lon="4.38126">
        <ele>586.9</ele>
        <time>2026-02-22T09:09:46.000Z</time>
      </trkpt>
      <trkpt lat="45.56612" lon="4.38207">
        <ele>595.9</ele>
        <time>2026-02-22T09:10:46.000Z</time>
      </trkpt>
      <trkpt lat="45.56641" lon="4.38311">
        <ele>603.7</ele>
        <time>2026-02-22T09:11:46.000Z</time>
      </trkpt>
      <trkpt lat="45.56686" lon="4.38418">
        <ele>610.8</ele>
        <time>2026-02-22T09:12:46.000Z</time>
      </trkpt>
      <trkpt lat="45.56719" lon="4.3852">
        <ele>621</ele>
        <time>2026-02-22T09:13:46.000Z</time>
      </trkpt>
      <trkpt lat="45.56752" lon="4.3863">
        <ele>627.7</ele>
        <time>2026-02-22T09:14:46.000Z</time>
      </trkpt>
      <trkpt lat="45.56748" lon="4.38752">
        <ele>632.1</ele>
        <time>2026-02-22T09:15:46.000Z</time>
      </trkpt>
      <trkpt lat="45.56761" lon="4.38873">
        <ele>636.4</ele>
        <time>2026-02-22T09:16:46.000Z</time>
      </trkpt>
      <trkpt lat="45.56783" lon="4.38993">
        <ele>640</ele>
        <time>2026-02-22T09:17:46.000Z</time>
      </trkpt>
      <trkpt lat="45.56802" lon="4.39086">
        <ele>642.9</ele>
        <time>2026-02-22T09:18:46.000Z</time>
      </trkpt>
      <trkpt lat="45.56804" lon="4.39204">
        <ele>644.1</ele>
        <time>2026-02-22T09:19:46.000Z</time>
      </trkpt>
      <trkpt lat="45.56832" lon="4.39317">
        <ele>648.8</ele>
        <time>2026-02-22T09:20:46.000Z</time>
      </trkpt>
      <trkpt lat="45.56851" lon="4.39435">
        <ele>647.6</ele>
        <time>2026-02-22T09:21:46.000Z</time>
      </trkpt>
      <trkpt lat="45.56878" lon="4.3958">
        <ele>639.2</ele>
        <time>2026-02-22T09:22:46.000Z</time>
      </trkpt>
      <trkpt lat="45.56872" lon="4.39685">
        <ele>631</ele>
        <time>2026-02-22T09:23:46.000Z</time>
      </trkpt>
      <trkpt lat="45.56871" lon="4.39799">
        <ele>618.8</ele>
        <time>2026-02-22T09:24:46.000Z</time>
      </trkpt>
      <trkpt lat="45.56789" lon="4.39784">
        <ele>611.5</ele>
        <time>2026-02-22T09:25:46.000Z</time>
      </trkpt>
      <trkpt lat="45.56741" lon="4.39822">
        <ele>609.2</ele>
      </trkpt>
      <trkpt lat="45.56727" lon="4.39902">
        <ele>603.2</ele>
        <time>2026-02-22T09:26:46.000Z</time>
      </trkpt>
      <trkpt lat="45.56801" lon="4.39909">
        <ele>598.9</ele>
        <time>2026-02-22T09:27:46.000Z</time>
      </trkpt>
      <trkpt lat="45.56868" lon="4.39976">
        <ele>588.4</ele>
        <time>2026-02-22T09:28:46.000Z</time>
      </trkpt>
      <trkpt lat="45.56919" lon="4.40066">
        <ele>585.2</ele>
        <time>2026-02-22T09:29:46.000Z</time>
      </trkpt>
      <trkpt lat="45.56987" lon="4.40111">
        <ele>589.4</ele>
        <time>2026-02-22T09:30:46.000Z</time>
      </trkpt>
      <trkpt lat="45.57054" lon="4.40158">
        <ele>588.5</ele>
        <time>2026-02-22T09:31:46.000Z</time>
      </trkpt>
      <trkpt lat="45.57126" lon="4.40162">
        <ele>585.7</ele>
        <time>2026-02-22T09:32:46.000Z</time>
      </trkpt>
      <trkpt lat="45.57212" lon="4.40141">
        <ele>588.1</ele>
        <time>2026-02-22T09:33:46.000Z</time>
      </trkpt>
      <trkpt lat="45.57237" lon="4.40127">
        <ele>589</ele>
      </trkpt>
      <trkpt lat="45.57253" lon="4.40174">
        <ele>593.7</ele>
      </trkpt>
      <trkpt lat="45.57261" lon="4.40193">
        <ele>595.7</ele>
        <time>2026-02-22T09:34:46.000Z</time>
      </trkpt>
      <trkpt lat="45.57293" lon="4.4022">
        <ele>598.3</ele>
      </trkpt>
      <trkpt lat="45.57296" lon="4.40249">
        <ele>600.9</ele>
      </trkpt>
      <trkpt lat="45.5729" lon="4.40278">
        <ele>601.6</ele>
        <time>2026-02-22T09:35:46.000Z</time>
      </trkpt>
      <trkpt lat="45.57226" lon="4.4035">
        <ele>605.4</ele>
        <time>2026-02-22T09:36:46.000Z</time>
      </trkpt>
      <trkpt lat="45.57176" lon="4.40436">
        <ele>613</ele>
        <time>2026-02-22T09:37:46.000Z</time>
      </trkpt>
      <trkpt lat="45.57115" lon="4.40501">
        <ele>620.8</ele>
        <time>2026-02-22T09:38:46.000Z</time>
      </trkpt>
      <trkpt lat="45.57056" lon="4.40524">
        <ele>625.8</ele>
        <time>2026-02-22T09:39:46.000Z</time>
      </trkpt>
      <trkpt lat="45.56992" lon="4.40531">
        <ele>630.8</ele>
        <time>2026-02-22T09:40:46.000Z</time>
      </trkpt>
      <trkpt lat="45.56939" lon="4.40577">
        <ele>635.6</ele>
        <time>2026-02-22T09:41:46.000Z</time>
      </trkpt>
      <trkpt lat="45.56896" lon="4.40616">
        <ele>641.3</ele>
        <time>2026-02-22T09:42:46.000Z</time>
      </trkpt>
      <trkpt lat="45.56836" lon="4.40664">
        <ele>652.3</ele>
        <time>2026-02-22T09:43:46.000Z</time>
      </trkpt>
      <trkpt lat="45.56775" lon="4.40703">
        <ele>664.7</ele>
        <time>2026-02-22T09:44:46.000Z</time>
      </trkpt>
      <trkpt lat="45.56723" lon="4.40776">
        <ele>673.9</ele>
        <time>2026-02-22T09:45:46.000Z</time>
      </trkpt>
      <trkpt lat="45.56674" lon="4.40812">
        <ele>681.4</ele>
        <time>2026-02-22T09:46:46.000Z</time>
      </trkpt>
      <trkpt lat="45.56638" lon="4.40902">
        <ele>688.2</ele>
        <time>2026-02-22T09:47:46.000Z</time>
      </trkpt>
      <trkpt lat="45.56577" lon="4.40912">
        <ele>699.5</ele>
        <time>2026-02-22T09:48:46.000Z</time>
      </trkpt>
      <trkpt lat="45.56519" lon="4.40971">
        <ele>705.3</ele>
        <time>2026-02-22T09:49:46.000Z</time>
      </trkpt>
      <trkpt lat="45.5647" lon="4.41047">
        <ele>712.4</ele>
        <time>2026-02-22T09:50:46.000Z</time>
      </trkpt>
      <trkpt lat="45.56412" lon="4.41055">
        <ele>715.3</ele>
        <time>2026-02-22T09:51:46.000Z</time>
      </trkpt>
      <trkpt lat="45.56339" lon="4.41016">
        <ele>713.6</ele>
        <time>2026-02-22T09:52:46.000Z</time>
      </trkpt>
      <trkpt lat="45.56265" lon="4.40984">
        <ele>712</ele>
        <time>2026-02-22T09:53:46.000Z</time>
      </trkpt>
      <trkpt lat="45.56191" lon="4.40941">
        <ele>709.5</ele>
        <time>2026-02-22T09:54:46.000Z</time>
      </trkpt>
      <trkpt lat="45.56142" lon="4.40916">
        <ele>707.8</ele>
        <time>2026-02-22T09:55:46.000Z</time>
      </trkpt>
      <trkpt lat="45.56079" lon="4.40844">
        <ele>691.5</ele>
        <time>2026-02-22T09:56:46.000Z</time>
      </trkpt>
      <trkpt lat="45.5601" lon="4.40801">
        <ele>678.2</ele>
        <time>2026-02-22T09:57:46.000Z</time>
      </trkpt>
      <trkpt lat="45.55956" lon="4.40759">
        <ele>670.6</ele>
        <time>2026-02-22T09:58:46.000Z</time>
      </trkpt>
      <trkpt lat="45.55924" lon="4.40749">
        <ele>666.7</ele>
      </trkpt>
      <trkpt lat="45.55903" lon="4.40793">
        <ele>663.5</ele>
        <time>2026-02-22T09:59:46.000Z</time>
      </trkpt>
      <trkpt lat="45.55874" lon="4.40804">
        <ele>657.8</ele>
      </trkpt>
      <trkpt lat="45.55843" lon="4.40785">
        <ele>652.3</ele>
        <time>2026-02-22T10:00:46.000Z</time>
      </trkpt>
      <trkpt lat="45.55767" lon="4.40749">
        <ele>639.8</ele>
        <time>2026-02-22T10:01:46.000Z</time>
      </trkpt>
      <trkpt lat="45.55684" lon="4.40749">
        <ele>631.6</ele>
        <time>2026-02-22T10:02:46.000Z</time>
      </trkpt>
      <trkpt lat="45.55618" lon="4.4073">
        <ele>637.8</ele>
        <time>2026-02-22T10:03:46.000Z</time>
      </trkpt>
      <trkpt lat="45.55616" lon="4.40769">
        <ele>638</ele>
        <time>2026-02-22T10:04:46.000Z</time>
      </trkpt>
      <trkpt lat="45.55615" lon="4.40904">
        <ele>638.5</ele>
        <time>2026-02-22T10:05:46.000Z</time>
      </trkpt>
      <trkpt lat="45.55584" lon="4.40998">
        <ele>643.9</ele>
        <time>2026-02-22T10:06:46.000Z</time>
      </trkpt>
      <trkpt lat="45.55531" lon="4.41039">
        <ele>657.2</ele>
        <time>2026-02-22T10:07:46.000Z</time>
      </trkpt>
      <trkpt lat="45.55486" lon="4.41076">
        <ele>663.2</ele>
        <time>2026-02-22T10:08:46.000Z</time>
      </trkpt>
      <trkpt lat="45.55455" lon="4.41167">
        <ele>671.3</ele>
        <time>2026-02-22T10:09:46.000Z</time>
      </trkpt>
      <trkpt lat="45.55406" lon="4.4122">
        <ele>679.6</ele>
        <time>2026-02-22T10:10:46.000Z</time>
      </trkpt>
      <trkpt lat="45.55341" lon="4.41243">
        <ele>687.4</ele>
        <time>2026-02-22T10:11:46.000Z</time>
      </trkpt>
      <trkpt lat="45.55271" lon="4.41258">
        <ele>694</ele>
        <time>2026-02-22T10:12:46.000Z</time>
      </trkpt>
      <trkpt lat="45.55217" lon="4.4131">
        <ele>699.1</ele>
        <time>2026-02-22T10:13:46.000Z</time>
      </trkpt>
      <trkpt lat="45.55156" lon="4.41367">
        <ele>702.2</ele>
        <time>2026-02-22T10:14:46.000Z</time>
      </trkpt>
      <trkpt lat="45.55137" lon="4.41375">
        <ele>703.1</ele>
      </trkpt>
      <trkpt lat="45.55126" lon="4.4133">
        <ele>705</ele>
        <time>2026-02-22T10:15:46.000Z</time>
      </trkpt>
      <trkpt lat="45.55048" lon="4.41322">
        <ele>703.2</ele>
        <time>2026-02-22T10:16:46.000Z</time>
      </trkpt>
      <trkpt lat="45.54974" lon="4.41326">
        <ele>697</ele>
        <time>2026-02-22T10:17:46.000Z</time>
      </trkpt>
      <trkpt lat="45.54906" lon="4.41285">
        <ele>687.4</ele>
        <time>2026-02-22T10:18:46.000Z</time>
      </trkpt>
      <trkpt lat="45.54828" lon="4.4128">
        <ele>675.2</ele>
        <time>2026-02-22T10:19:46.000Z</time>
      </trkpt>
      <trkpt lat="45.54757" lon="4.41291">
        <ele>666.8</ele>
        <time>2026-02-22T10:20:46.000Z</time>
      </trkpt>
      <trkpt lat="45.54744" lon="4.41277">
        <ele>665.6</ele>
        <time>2026-02-22T10:21:46.000Z</time>
      </trkpt>
      <trkpt lat="45.54755" lon="4.41292">
        <ele>666.5</ele>
        <time>2026-02-22T10:30:06.000Z</time>
      </trkpt>
      <trkpt lat="45.54712" lon="4.41284">
        <ele>663.5</ele>
        <time>2026-02-22T10:35:00.000Z</time>
      </trkpt>
      <trkpt lat="45.54713" lon="4.41336">
        <ele>665.4</ele>
        <time>2026-02-22T10:36:00.000Z</time>
      </trkpt>
      <trkpt lat="45.54705" lon="4.41446">
        <ele>669.6</ele>
        <time>2026-02-22T10:37:00.000Z</time>
      </trkpt>
      <trkpt lat="45.54708" lon="4.41451">
        <ele>670.2</ele>
        <time>2026-02-22T10:38:32.000Z</time>
      </trkpt>
      <trkpt lat="45.54715" lon="4.41531">
        <ele>673.7</ele>
        <time>2026-02-22T10:39:32.000Z</time>
      </trkpt>
      <trkpt lat="45.54712" lon="4.41639">
        <ele>679.8</ele>
        <time>2026-02-22T10:40:32.000Z</time>
      </trkpt>
      <trkpt lat="45.54739" lon="4.41736">
        <ele>687.6</ele>
        <time>2026-02-22T10:41:32.000Z</time>
      </trkpt>
      <trkpt lat="45.54782" lon="4.4182">
        <ele>688.8</ele>
        <time>2026-02-22T10:42:32.000Z</time>
      </trkpt>
      <trkpt lat="45.54843" lon="4.41891">
        <ele>690.5</ele>
        <time>2026-02-22T10:43:32.000Z</time>
      </trkpt>
      <trkpt lat="45.54868" lon="4.41986">
        <ele>698.9</ele>
        <time>2026-02-22T10:44:32.000Z</time>
      </trkpt>
      <trkpt lat="45.54879" lon="4.42082">
        <ele>708.4</ele>
        <time>2026-02-22T10:45:32.000Z</time>
      </trkpt>
      <trkpt lat="45.54881" lon="4.4218">
        <ele>716</ele>
        <time>2026-02-22T10:46:32.000Z</time>
      </trkpt>
      <trkpt lat="45.54887" lon="4.42276">
        <ele>723.9</ele>
        <time>2026-02-22T10:47:32.000Z</time>
      </trkpt>
      <trkpt lat="45.54888" lon="4.42372">
        <ele>731.4</ele>
        <time>2026-02-22T10:48:32.000Z</time>
      </trkpt>
      <trkpt lat="45.54874" lon="4.42451">
        <ele>737.3</ele>
        <time>2026-02-22T10:49:32.000Z</time>
      </trkpt>
      <trkpt lat="45.54785" lon="4.42389">
        <ele>732</ele>
        <time>2026-02-22T10:50:32.000Z</time>
      </trkpt>
      <trkpt lat="45.54715" lon="4.42373">
        <ele>722.3</ele>
        <time>2026-02-22T10:51:32.000Z</time>
      </trkpt>
      <trkpt lat="45.54666" lon="4.4236">
        <ele>712.9</ele>
        <time>2026-02-22T10:52:32.000Z</time>
      </trkpt>
      <trkpt lat="45.54578" lon="4.42386">
        <ele>704.9</ele>
        <time>2026-02-22T10:53:32.000Z</time>
      </trkpt>
      <trkpt lat="45.54519" lon="4.42389">
        <ele>707</ele>
        <time>2026-02-22T10:54:32.000Z</time>
      </trkpt>
      <trkpt lat="45.54475" lon="4.424">
        <ele>706.8</ele>
        <time>2026-02-22T10:55:32.000Z</time>
      </trkpt>
      <trkpt lat="45.54451" lon="4.42375">
        <ele>703.5</ele>
        <time>2026-02-22T10:56:32.000Z</time>
      </trkpt>
      <trkpt lat="45.54418" lon="4.42349">
        <ele>698.8</ele>
        <time>2026-02-22T10:57:32.000Z</time>
      </trkpt>
      <trkpt lat="45.54373" lon="4.42327">
        <ele>691.4</ele>
        <time>2026-02-22T10:58:32.000Z</time>
      </trkpt>
      <trkpt lat="45.54341" lon="4.4245">
        <ele>695.5</ele>
        <time>2026-02-22T10:59:32.000Z</time>
      </trkpt>
      <trkpt lat="45.54302" lon="4.42545">
        <ele>698.9</ele>
        <time>2026-02-22T11:00:32.000Z</time>
      </trkpt>
      <trkpt lat="45.54257" lon="4.42642">
        <ele>701.3</ele>
        <time>2026-02-22T11:01:32.000Z</time>
      </trkpt>
      <trkpt lat="45.542" lon="4.42716">
        <ele>707.9</ele>
        <time>2026-02-22T11:02:32.000Z</time>
      </trkpt>
      <trkpt lat="45.54139" lon="4.42768">
        <ele>712.9</ele>
        <time>2026-02-22T11:03:32.000Z</time>
      </trkpt>
      <trkpt lat="45.54073" lon="4.4283">
        <ele>718.8</ele>
        <time>2026-02-22T11:04:32.000Z</time>
      </trkpt>
      <trkpt lat="45.54016" lon="4.42894">
        <ele>722.5</ele>
        <time>2026-02-22T11:05:32.000Z</time>
      </trkpt>
      <trkpt lat="45.53968" lon="4.42964">
        <ele>723.4</ele>
        <time>2026-02-22T11:06:32.000Z</time>
      </trkpt>
      <trkpt lat="45.5391" lon="4.4303">
        <ele>731.6</ele>
        <time>2026-02-22T11:07:32.000Z</time>
      </trkpt>
      <trkpt lat="45.5384" lon="4.43099">
        <ele>728.5</ele>
        <time>2026-02-22T11:08:32.000Z</time>
      </trkpt>
      <trkpt lat="45.53795" lon="4.43198">
        <ele>730.2</ele>
        <time>2026-02-22T11:09:32.000Z</time>
      </trkpt>
      <trkpt lat="45.53735" lon="4.43278">
        <ele>731.4</ele>
        <time>2026-02-22T11:10:32.000Z</time>
      </trkpt>
      <trkpt lat="45.5367" lon="4.4334">
        <ele>736</ele>
        <time>2026-02-22T11:11:32.000Z</time>
      </trkpt>
      <trkpt lat="45.53596" lon="4.43349">
        <ele>744.7</ele>
        <time>2026-02-22T11:12:32.000Z</time>
      </trkpt>
      <trkpt lat="45.53528" lon="4.43314">
        <ele>748.9</ele>
        <time>2026-02-22T11:13:32.000Z</time>
      </trkpt>
      <trkpt lat="45.53462" lon="4.43246">
        <ele>753.4</ele>
        <time>2026-02-22T11:14:32.000Z</time>
      </trkpt>
      <trkpt lat="45.53393" lon="4.43191">
        <ele>762.4</ele>
        <time>2026-02-22T11:15:32.000Z</time>
      </trkpt>
      <trkpt lat="45.53333" lon="4.43157">
        <ele>767.1</ele>
        <time>2026-02-22T11:16:32.000Z</time>
      </trkpt>
      <trkpt lat="45.53314" lon="4.43076">
        <ele>769.9</ele>
      </trkpt>
      <trkpt lat="45.53279" lon="4.4306">
        <ele>775.9</ele>
        <time>2026-02-22T11:17:32.000Z</time>
      </trkpt>
      <trkpt lat="45.53226" lon="4.43056">
        <ele>784.3</ele>
        <time>2026-02-22T11:18:32.000Z</time>
      </trkpt>
      <trkpt lat="45.5321" lon="4.43052">
        <ele>786.5</ele>
      </trkpt>
      <trkpt lat="45.53149" lon="4.43019">
        <ele>792</ele>
        <time>2026-02-22T11:19:32.000Z</time>
      </trkpt>
      <trkpt lat="45.5309" lon="4.42991">
        <ele>796.1</ele>
        <time>2026-02-22T11:20:32.000Z</time>
      </trkpt>
      <trkpt lat="45.53021" lon="4.42975">
        <ele>801</ele>
        <time>2026-02-22T11:21:32.000Z</time>
      </trkpt>
      <trkpt lat="45.52957" lon="4.42947">
        <ele>804.8</ele>
        <time>2026-02-22T11:22:32.000Z</time>
      </trkpt>
      <trkpt lat="45.5289" lon="4.42892">
        <ele>809</ele>
        <time>2026-02-22T11:23:32.000Z</time>
      </trkpt>
      <trkpt lat="45.52846" lon="4.42847">
        <ele>814.9</ele>
        <time>2026-02-22T11:24:32.000Z</time>
      </trkpt>
      <trkpt lat="45.52843" lon="4.42842">
        <ele>815.4</ele>
        <time>2026-02-22T11:25:57.000Z</time>
      </trkpt>
      <trkpt lat="45.52782" lon="4.4279">
        <ele>818.7</ele>
      </trkpt>
      <trkpt lat="45.52752" lon="4.42765">
        <ele>818.5</ele>
        <time>2026-02-22T11:26:57.000Z</time>
      </trkpt>
      <trkpt lat="45.5276" lon="4.42791">
        <ele>819</ele>
      </trkpt>
      <trkpt lat="45.52747" lon="4.42853">
        <ele>819.8</ele>
        <time>2026-02-22T11:27:57.000Z</time>
      </trkpt>
      <trkpt lat="45.52756" lon="4.42934">
        <ele>816.8</ele>
        <time>2026-02-22T11:28:57.000Z</time>
      </trkpt>
      <trkpt lat="45.52796" lon="4.4304">
        <ele>809.9</ele>
        <time>2026-02-22T11:29:57.000Z</time>
      </trkpt>
      <trkpt lat="45.52836" lon="4.43144">
        <ele>805.7</ele>
        <time>2026-02-22T11:30:57.000Z</time>
      </trkpt>
      <trkpt lat="45.52854" lon="4.43198">
        <ele>803.5</ele>
      </trkpt>
      <trkpt lat="45.52887" lon="4.43237">
        <ele>801.8</ele>
        <time>2026-02-22T11:31:57.000Z</time>
      </trkpt>
      <trkpt lat="45.52933" lon="4.43286">
        <ele>802.3</ele>
        <time>2026-02-22T11:32:57.000Z</time>
      </trkpt>
      <trkpt lat="45.52968" lon="4.43333">
        <ele>801.7</ele>
      </trkpt>
      <trkpt lat="45.5294" lon="4.43338">
        <ele>799.2</ele>
        <time>2026-02-22T11:33:57.000Z</time>
      </trkpt>
      <trkpt lat="45.5286" lon="4.43329">
        <ele>791.5</ele>
        <time>2026-02-22T11:34:57.000Z</time>
      </trkpt>
      <trkpt lat="45.52793" lon="4.43293">
        <ele>784.6</ele>
        <time>2026-02-22T11:35:57.000Z</time>
      </trkpt>
      <trkpt lat="45.52719" lon="4.43256">
        <ele>769.9</ele>
        <time>2026-02-22T11:36:57.000Z</time>
      </trkpt>
      <trkpt lat="45.52638" lon="4.43235">
        <ele>758</ele>
        <time>2026-02-22T11:37:57.000Z</time>
      </trkpt>
      <trkpt lat="45.52579" lon="4.43177">
        <ele>744.4</ele>
        <time>2026-02-22T11:38:57.000Z</time>
      </trkpt>
      <trkpt lat="45.52536" lon="4.43085">
        <ele>731.5</ele>
        <time>2026-02-22T11:39:57.000Z</time>
      </trkpt>
      <trkpt lat="45.52487" lon="4.43015">
        <ele>717.8</ele>
        <time>2026-02-22T11:40:57.000Z</time>
      </trkpt>
      <trkpt lat="45.52423" lon="4.43076">
        <ele>714.3</ele>
        <time>2026-02-22T11:41:57.000Z</time>
      </trkpt>
      <trkpt lat="45.52368" lon="4.43204">
        <ele>715.3</ele>
        <time>2026-02-22T11:42:57.000Z</time>
      </trkpt>
      <trkpt lat="45.52311" lon="4.43202">
        <ele>717.6</ele>
        <time>2026-02-22T11:43:57.000Z</time>
      </trkpt>
      <trkpt lat="45.52187" lon="4.43173">
        <ele>717.2</ele>
        <time>2026-02-22T11:44:57.000Z</time>
      </trkpt>
      <trkpt lat="45.52185" lon="4.43238">
        <ele>713.6</ele>
        <time>2026-02-22T11:45:57.000Z</time>
      </trkpt>
      <trkpt lat="45.5215" lon="4.43345">
        <ele>713.7</ele>
        <time>2026-02-22T11:46:57.000Z</time>
      </trkpt>
      <trkpt lat="45.52073" lon="4.43393">
        <ele>715.3</ele>
        <time>2026-02-22T11:47:57.000Z</time>
      </trkpt>
      <trkpt lat="45.5207" lon="4.43368">
        <ele>721.6</ele>
      </trkpt>
      <trkpt lat="45.52084" lon="4.43368">
        <ele>721.5</ele>
        <time>2026-02-22T11:48:57.000Z</time>
      </trkpt>
      <trkpt lat="45.52138" lon="4.43303">
        <ele>726.7</ele>
        <time>2026-02-22T11:49:57.000Z</time>
      </trkpt>
      <trkpt lat="45.52148" lon="4.432">
        <ele>731.7</ele>
        <time>2026-02-22T11:50:57.000Z</time>
      </trkpt>
      <trkpt lat="45.52138" lon="4.43083">
        <ele>740.4</ele>
        <time>2026-02-22T11:51:57.000Z</time>
      </trkpt>
      <trkpt lat="45.52143" lon="4.43032">
        <ele>744.6</ele>
        <time>2026-02-22T11:52:57.000Z</time>
      </trkpt>
      <trkpt lat="45.52116" lon="4.43114">
        <ele>747.8</ele>
        <time>2026-02-22T11:53:57.000Z</time>
      </trkpt>
      <trkpt lat="45.52086" lon="4.43171">
        <ele>755.9</ele>
      </trkpt>
      <trkpt lat="45.52068" lon="4.43173">
        <ele>758.2</ele>
        <time>2026-02-22T11:54:57.000Z</time>
      </trkpt>
      <trkpt lat="45.52054" lon="4.43083">
        <ele>766.8</ele>
        <time>2026-02-22T11:55:57.000Z</time>
      </trkpt>
      <trkpt lat="45.52054" lon="4.43001">
        <ele>775.7</ele>
        <time>2026-02-22T11:56:57.000Z</time>
      </trkpt>
      <trkpt lat="45.52063" lon="4.42908">
        <ele>786.5</ele>
        <time>2026-02-22T11:57:57.000Z</time>
      </trkpt>
      <trkpt lat="45.52088" lon="4.42827">
        <ele>796.5</ele>
        <time>2026-02-22T11:58:57.000Z</time>
      </trkpt>
      <trkpt lat="45.52129" lon="4.42743">
        <ele>805.4</ele>
        <time>2026-02-22T11:59:57.000Z</time>
      </trkpt>
      <trkpt lat="45.52183" lon="4.42668">
        <ele>810.3</ele>
        <time>2026-02-22T12:00:57.000Z</time>
      </trkpt>
      <trkpt lat="45.52246" lon="4.42594">
        <ele>814.6</ele>
        <time>2026-02-22T12:01:57.000Z</time>
      </trkpt>
      <trkpt lat="45.52311" lon="4.42526">
        <ele>819.4</ele>
        <time>2026-02-22T12:02:57.000Z</time>
      </trkpt>
      <trkpt lat="45.52385" lon="4.42483">
        <ele>822.3</ele>
        <time>2026-02-22T12:03:57.000Z</time>
      </trkpt>
      <trkpt lat="45.52464" lon="4.4245">
        <ele>822.9</ele>
        <time>2026-02-22T12:04:57.000Z</time>
      </trkpt>
      <trkpt lat="45.5253" lon="4.42383">
        <ele>828</ele>
        <time>2026-02-22T12:05:57.000Z</time>
      </trkpt>
      <trkpt lat="45.52597" lon="4.42324">
        <ele>832.8</ele>
        <time>2026-02-22T12:06:57.000Z</time>
      </trkpt>
      <trkpt lat="45.52646" lon="4.42262">
        <ele>837.6</ele>
        <time>2026-02-22T12:07:57.000Z</time>
      </trkpt>
      <trkpt lat="45.52696" lon="4.42165">
        <ele>835.8</ele>
        <time>2026-02-22T12:08:57.000Z</time>
      </trkpt>
      <trkpt lat="45.52724" lon="4.42055">
        <ele>836</ele>
        <time>2026-02-22T12:09:57.000Z</time>
      </trkpt>
      <trkpt lat="45.52718" lon="4.42045">
        <ele>835.5</ele>
        <time>2026-02-22T12:11:57.000Z</time>
      </trkpt>
      <trkpt lat="45.52718" lon="4.42035">
        <ele>835.1</ele>
        <time>2026-02-22T12:18:54.000Z</time>
      </trkpt>
      <trkpt lat="45.52719" lon="4.42045">
        <ele>835.5</ele>
        <time>2026-02-22T12:19:57.000Z</time>
      </trkpt>
      <trkpt lat="45.52724" lon="4.42035">
        <ele>835.3</ele>
        <time>2026-02-22T12:25:53.000Z</time>
      </trkpt>
      <trkpt lat="45.52728" lon="4.42092">
        <ele>836.2</ele>
        <time>2026-02-22T12:26:53.000Z</time>
      </trkpt>
      <trkpt lat="45.52783" lon="4.42064">
        <ele>839.2</ele>
        <time>2026-02-22T12:27:53.000Z</time>
      </trkpt>
      <trkpt lat="45.52852" lon="4.42042">
        <ele>842.8</ele>
        <time>2026-02-22T12:28:53.000Z</time>
      </trkpt>
      <trkpt lat="45.52918" lon="4.42011">
        <ele>848.7</ele>
        <time>2026-02-22T12:29:53.000Z</time>
      </trkpt>
      <trkpt lat="45.52922" lon="4.41999">
        <ele>849.4</ele>
        <time>2026-02-22T12:33:28.000Z</time>
      </trkpt>
      <trkpt lat="45.52946" lon="4.41972">
        <ele>852.1</ele>
        <time>2026-02-22T12:34:28.000Z</time>
      </trkpt>
      <trkpt lat="45.52987" lon="4.41885">
        <ele>857.6</ele>
        <time>2026-02-22T12:35:28.000Z</time>
      </trkpt>
      <trkpt lat="45.53037" lon="4.41797">
        <ele>854.7</ele>
        <time>2026-02-22T12:36:28.000Z</time>
      </trkpt>
      <trkpt lat="45.53064" lon="4.41688">
        <ele>852.2</ele>
        <time>2026-02-22T12:37:28.000Z</time>
      </trkpt>
      <trkpt lat="45.53076" lon="4.41579">
        <ele>842.4</ele>
        <time>2026-02-22T12:38:28.000Z</time>
      </trkpt>
      <trkpt lat="45.53086" lon="4.41461">
        <ele>844.9</ele>
        <time>2026-02-22T12:39:28.000Z</time>
      </trkpt>
      <trkpt lat="45.53089" lon="4.41342">
        <ele>844.2</ele>
        <time>2026-02-22T12:40:28.000Z</time>
      </trkpt>
      <trkpt lat="45.53098" lon="4.41234">
        <ele>846</ele>
        <time>2026-02-22T12:41:28.000Z</time>
      </trkpt>
      <trkpt lat="45.53104" lon="4.41181">
        <ele>846.6</ele>
        <time>2026-02-22T12:42:28.000Z</time>
      </trkpt>
      <trkpt lat="45.53153" lon="4.41064">
        <ele>849</ele>
        <time>2026-02-22T12:43:28.000Z</time>
      </trkpt>
      <trkpt lat="45.53177" lon="4.41045">
        <ele>851.4</ele>
        <time>2026-02-22T12:44:37.000Z</time>
      </trkpt>
      <trkpt lat="45.5323" lon="4.40998">
        <ele>856.2</ele>
      </trkpt>
      <trkpt lat="45.53228" lon="4.40974">
        <ele>858.6</ele>
        <time>2026-02-22T12:45:37.000Z</time>
      </trkpt>
      <trkpt lat="45.53277" lon="4.4089">
        <ele>860.1</ele>
        <time>2026-02-22T12:46:37.000Z</time>
      </trkpt>
      <trkpt lat="45.53306" lon="4.40834">
        <ele>858</ele>
        <time>2026-02-22T12:47:37.000Z</time>
      </trkpt>
      <trkpt lat="45.53343" lon="4.40733">
        <ele>847.8</ele>
        <time>2026-02-22T12:48:37.000Z</time>
      </trkpt>
      <trkpt lat="45.5337" lon="4.40627">
        <ele>837.4</ele>
        <time>2026-02-22T12:49:37.000Z</time>
      </trkpt>
      <trkpt lat="45.53377" lon="4.40513">
        <ele>827.4</ele>
        <time>2026-02-22T12:50:37.000Z</time>
      </trkpt>
      <trkpt lat="45.53399" lon="4.4041">
        <ele>819.3</ele>
        <time>2026-02-22T12:51:37.000Z</time>
      </trkpt>
      <trkpt lat="45.53431" lon="4.40302">
        <ele>810.8</ele>
        <time>2026-02-22T12:52:37.000Z</time>
      </trkpt>
      <trkpt lat="45.5346" lon="4.40187">
        <ele>802.1</ele>
        <time>2026-02-22T12:53:37.000Z</time>
      </trkpt>
      <trkpt lat="45.53487" lon="4.40074">
        <ele>791.6</ele>
        <time>2026-02-22T12:54:37.000Z</time>
      </trkpt>
      <trkpt lat="45.53522" lon="4.39934">
        <ele>784.5</ele>
        <time>2026-02-22T12:55:37.000Z</time>
      </trkpt>
      <trkpt lat="45.53565" lon="4.39973">
        <ele>782.3</ele>
        <time>2026-02-22T12:56:37.000Z</time>
      </trkpt>
      <trkpt lat="45.5361" lon="4.40072">
        <ele>779.2</ele>
        <time>2026-02-22T12:57:37.000Z</time>
      </trkpt>
      <trkpt lat="45.53643" lon="4.40185">
        <ele>773.9</ele>
        <time>2026-02-22T12:58:37.000Z</time>
      </trkpt>
      <trkpt lat="45.53716" lon="4.40251">
        <ele>770</ele>
        <time>2026-02-22T12:59:37.000Z</time>
      </trkpt>
      <trkpt lat="45.5378" lon="4.40325">
        <ele>767.9</ele>
        <time>2026-02-22T13:00:37.000Z</time>
      </trkpt>
      <trkpt lat="45.53854" lon="4.40374">
        <ele>768.2</ele>
        <time>2026-02-22T13:01:37.000Z</time>
      </trkpt>
      <trkpt lat="45.53947" lon="4.40447">
        <ele>766.7</ele>
        <time>2026-02-22T13:02:37.000Z</time>
      </trkpt>
      <trkpt lat="45.53994" lon="4.40384">
        <ele>757.1</ele>
        <time>2026-02-22T13:03:37.000Z</time>
      </trkpt>
      <trkpt lat="45.54057" lon="4.40297">
        <ele>746.8</ele>
        <time>2026-02-22T13:04:37.000Z</time>
      </trkpt>
      <trkpt lat="45.54135" lon="4.40238">
        <ele>738</ele>
        <time>2026-02-22T13:05:37.000Z</time>
      </trkpt>
      <trkpt lat="45.54192" lon="4.40146">
        <ele>731</ele>
        <time>2026-02-22T13:06:37.000Z</time>
      </trkpt>
      <trkpt lat="45.5422" lon="4.40056">
        <ele>728</ele>
        <time>2026-02-22T13:07:37.000Z</time>
      </trkpt>
      <trkpt lat="45.54221" lon="4.40023">
        <ele>726.8</ele>
        <time>2026-02-22T13:08:37.000Z</time>
      </trkpt>
      <trkpt lat="45.54238" lon="4.39996">
        <ele>726.3</ele>
        <time>2026-02-22T13:10:09.000Z</time>
      </trkpt>
      <trkpt lat="45.54281" lon="4.39887">
        <ele>721.9</ele>
        <time>2026-02-22T13:11:09.000Z</time>
      </trkpt>
      <trkpt lat="45.54312" lon="4.3977">
        <ele>717</ele>
        <time>2026-02-22T13:12:09.000Z</time>
      </trkpt>
      <trkpt lat="45.54323" lon="4.39648">
        <ele>714</ele>
        <time>2026-02-22T13:13:09.000Z</time>
      </trkpt>
      <trkpt lat="45.54317" lon="4.3952">
        <ele>709.5</ele>
        <time>2026-02-22T13:14:09.000Z</time>
      </trkpt>
      <trkpt lat="45.54326" lon="4.39394">
        <ele>705.1</ele>
        <time>2026-02-22T13:15:09.000Z</time>
      </trkpt>
      <trkpt lat="45.54352" lon="4.39273">
        <ele>700.5</ele>
        <time>2026-02-22T13:16:09.000Z</time>
      </trkpt>
      <trkpt lat="45.54384" lon="4.39178">
        <ele>696</ele>
        <time>2026-02-22T13:17:09.000Z</time>
      </trkpt>
      <trkpt lat="45.54411" lon="4.39068">
        <ele>691.6</ele>
        <time>2026-02-22T13:18:09.000Z</time>
      </trkpt>
      <trkpt lat="45.54437" lon="4.38997">
        <ele>693.8</ele>
        <time>2026-02-22T13:19:09.000Z</time>
      </trkpt>
      <trkpt lat="45.54469" lon="4.38892">
        <ele>697</ele>
        <time>2026-02-22T13:20:09.000Z</time>
      </trkpt>
      <trkpt lat="45.54515" lon="4.38792">
        <ele>694.2</ele>
        <time>2026-02-22T13:21:09.000Z</time>
      </trkpt>
      <trkpt lat="45.54575" lon="4.38717">
        <ele>685.4</ele>
        <time>2026-02-22T13:22:09.000Z</time>
      </trkpt>
      <trkpt lat="45.54626" lon="4.38647">
        <ele>680.9</ele>
        <time>2026-02-22T13:23:09.000Z</time>
      </trkpt>
      <trkpt lat="45.54676" lon="4.38673">
        <ele>678.1</ele>
        <time>2026-02-22T13:24:09.000Z</time>
      </trkpt>
      <trkpt lat="45.54639" lon="4.38652">
        <ele>680.5</ele>
        <time>2026-02-22T13:25:09.000Z</time>
      </trkpt>
      <trkpt lat="45.54671" lon="4.38557">
        <ele>674.3</ele>
        <time>2026-02-22T13:26:09.000Z</time>
      </trkpt>
      <trkpt lat="45.54724" lon="4.38463">
        <ele>671</ele>
        <time>2026-02-22T13:27:09.000Z</time>
      </trkpt>
      <trkpt lat="45.54767" lon="4.38387">
        <ele>668.8</ele>
        <time>2026-02-22T13:28:09.000Z</time>
      </trkpt>
      <trkpt lat="45.54848" lon="4.38387">
        <ele>663.5</ele>
        <time>2026-02-22T13:29:09.000Z</time>
      </trkpt>
      <trkpt lat="45.54841" lon="4.38395">
        <ele>664.2</ele>
        <time>2026-02-22T13:33:15.000Z</time>
      </trkpt>
      <trkpt lat="45.5485" lon="4.38405">
        <ele>663.2</ele>
        <time>2026-02-22T13:46:00.000Z</time>
      </trkpt>
      <trkpt lat="45.54838" lon="4.38398">
        <ele>664.5</ele>
        <time>2026-02-22T13:47:19.000Z</time>
      </trkpt>
      <trkpt lat="45.54842" lon="4.38395">
        <ele>664.1</ele>
        <time>2026-02-22T13:49:06.000Z</time>
      </trkpt>
      <trkpt lat="45.54847" lon="4.38385">
        <ele>663.6</ele>
        <time>2026-02-22T13:53:37.000Z</time>
      </trkpt>
      <trkpt lat="45.54781" lon="4.38382">
        <ele>667.9</ele>
        <time>2026-02-22T13:54:37.000Z</time>
      </trkpt>
      <trkpt lat="45.54726" lon="4.38453">
        <ele>670.9</ele>
        <time>2026-02-22T13:55:37.000Z</time>
      </trkpt>
      <trkpt lat="45.54674" lon="4.38547">
        <ele>673.9</ele>
        <time>2026-02-22T13:56:37.000Z</time>
      </trkpt>
      <trkpt lat="45.54635" lon="4.38642">
        <ele>680.3</ele>
        <time>2026-02-22T13:57:37.000Z</time>
      </trkpt>
      <trkpt lat="45.54677" lon="4.38673">
        <ele>678</ele>
        <time>2026-02-22T13:58:37.000Z</time>
      </trkpt>
      <trkpt lat="45.54719" lon="4.38689">
        <ele>673.7</ele>
        <time>2026-02-22T13:59:37.000Z</time>
      </trkpt>
      <trkpt lat="45.54793" lon="4.38737">
        <ele>662.1</ele>
        <time>2026-02-22T14:00:37.000Z</time>
      </trkpt>
      <trkpt lat="45.5487" lon="4.3879">
        <ele>654</ele>
        <time>2026-02-22T14:01:37.000Z</time>
      </trkpt>
      <trkpt lat="45.54894" lon="4.38857">
        <ele>652.1</ele>
        <time>2026-02-22T14:02:37.000Z</time>
      </trkpt>
      <trkpt lat="45.55013" lon="4.3883">
        <ele>652.9</ele>
        <time>2026-02-22T14:03:37.000Z</time>
      </trkpt>
      <trkpt lat="45.55071" lon="4.38804">
        <ele>661.6</ele>
        <time>2026-02-22T14:04:37.000Z</time>
      </trkpt>
      <trkpt lat="45.55117" lon="4.38718">
        <ele>661.1</ele>
        <time>2026-02-22T14:05:37.000Z</time>
      </trkpt>
      <trkpt lat="45.55189" lon="4.38663">
        <ele>659.8</ele>
        <time>2026-02-22T14:06:37.000Z</time>
      </trkpt>
      <trkpt lat="45.55242" lon="4.38569">
        <ele>658.6</ele>
        <time>2026-02-22T14:07:37.000Z</time>
      </trkpt>
      <trkpt lat="45.55298" lon="4.38473">
        <ele>662.5</ele>
        <time>2026-02-22T14:08:37.000Z</time>
      </trkpt>
      <trkpt lat="45.55344" lon="4.38515">
        <ele>664.8</ele>
        <time>2026-02-22T14:09:37.000Z</time>
      </trkpt>
      <trkpt lat="45.55395" lon="4.38571">
        <ele>668.3</ele>
        <time>2026-02-22T14:10:37.000Z</time>
      </trkpt>
      <trkpt lat="45.55409" lon="4.38611">
        <ele>671</ele>
      </trkpt>
      <trkpt lat="45.55438" lon="4.38602">
        <ele>670.9</ele>
        <time>2026-02-22T14:11:37.000Z</time>
      </trkpt>
      <trkpt lat="45.55445" lon="4.3846">
        <ele>674.4</ele>
        <time>2026-02-22T14:12:37.000Z</time>
      </trkpt>
      <trkpt lat="45.55445" lon="4.38345">
        <ele>679.9</ele>
        <time>2026-02-22T14:13:37.000Z</time>
      </trkpt>
      <trkpt lat="45.5549" lon="4.38242">
        <ele>674.9</ele>
        <time>2026-02-22T14:14:37.000Z</time>
      </trkpt>
      <trkpt lat="45.55551" lon="4.38169">
        <ele>669.5</ele>
        <time>2026-02-22T14:15:37.000Z</time>
      </trkpt>
      <trkpt lat="45.55637" lon="4.38158">
        <ele>659.9</ele>
        <time>2026-02-22T14:16:37.000Z</time>
      </trkpt>
      <trkpt lat="45.55703" lon="4.38086">
        <ele>652.9</ele>
        <time>2026-02-22T14:17:37.000Z</time>
      </trkpt>
      <trkpt lat="45.55771" lon="4.38031">
        <ele>651</ele>
        <time>2026-02-22T14:18:37.000Z</time>
      </trkpt>
      <trkpt lat="45.55825" lon="4.37945">
        <ele>645</ele>
        <time>2026-02-22T14:19:37.000Z</time>
      </trkpt>
      <trkpt lat="45.55788" lon="4.37834">
        <ele>639.3</ele>
        <time>2026-02-22T14:20:37.000Z</time>
      </trkpt>
      <trkpt lat="45.55773" lon="4.37744">
        <ele>635.7</ele>
        <time>2026-02-22T14:21:37.000Z</time>
      </trkpt>
      <trkpt lat="45.55767" lon="4.37672">
        <ele>629.6</ele>
        <time>2026-02-22T14:22:37.000Z</time>
      </trkpt>
      <trkpt lat="45.55839" lon="4.37642">
        <ele>623.8</ele>
        <time>2026-02-22T14:23:37.000Z</time>
      </trkpt>
      <trkpt lat="45.55897" lon="4.37561">
        <ele>615</ele>
        <time>2026-02-22T14:24:37.000Z</time>
      </trkpt>
      <trkpt lat="45.55969" lon="4.37515">
        <ele>607.8</ele>
        <time>2026-02-22T14:25:37.000Z</time>
      </trkpt>
      <trkpt lat="45.56021" lon="4.3744">
        <ele>598.4</ele>
        <time>2026-02-22T14:26:37.000Z</time>
      </trkpt>
      <trkpt lat="45.56067" lon="4.37363">
        <ele>588.5</ele>
        <time>2026-02-22T14:27:37.000Z</time>
      </trkpt>
      <trkpt lat="45.56125" lon="4.37303">
        <ele>579</ele>
        <time>2026-02-22T14:28:37.000Z</time>
      </trkpt>
      <trkpt lat="45.56184" lon="4.37243">
        <ele>560</ele>
        <time>2026-02-22T14:29:37.000Z</time>
      </trkpt>
      <trkpt lat="45.56191" lon="4.37113">
        <ele>546.9</ele>
        <time>2026-02-22T14:30:37.000Z</time>
      </trkpt>
      <trkpt lat="45.56226" lon="4.37122">
        <ele>547</ele>
        <time>2026-02-22T14:31:37.000Z</time>
      </trkpt>
      <trkpt lat="45.56288" lon="4.37131">
        <ele>556.8</ele>
        <time>2026-02-22T14:32:37.000Z</time>
      </trkpt>
      <trkpt lat="45.5636" lon="4.37121">
        <ele>565.5</ele>
        <time>2026-02-22T14:33:37.000Z</time>
      </trkpt>
      <trkpt lat="45.56431" lon="4.37128">
        <ele>574.5</ele>
        <time>2026-02-22T14:34:37.000Z</time>
      </trkpt>
      <trkpt lat="45.56461" lon="4.37148">
        <ele>577.8</ele>
      </trkpt>
      <trkpt lat="45.56461" lon="4.37195">
        <ele>577.8</ele>
        <time>2026-02-22T14:35:37.000Z</time>
      </trkpt>
      <trkpt lat="45.56393" lon="4.37214">
        <ele>571</ele>
        <time>2026-02-22T14:36:37.000Z</time>
      </trkpt>
      <trkpt lat="45.56337" lon="4.37263">
        <ele>567.5</ele>
        <time>2026-02-22T14:37:37.000Z</time>
      </trkpt>
      <trkpt lat="45.56324" lon="4.37336">
        <ele>571.2</ele>
        <time>2026-02-22T14:38:37.000Z</time>
      </trkpt>
      <trkpt lat="45.5633" lon="4.37422">
        <ele>578.3</ele>
        <time>2026-02-22T14:39:37.000Z</time>
      </trkpt>
      <trkpt lat="45.56385" lon="4.37455">
        <ele>584.2</ele>
        <time>2026-02-22T14:40:37.000Z</time>
      </trkpt>
      <trkpt lat="45.56401" lon="4.37425">
        <ele>584.2</ele>
        <time>2026-02-22T14:41:37.000Z</time>
      </trkpt>
      <trkpt lat="45.56385" lon="4.37417">
        <ele>582.9</ele>
        <time>2026-02-22T14:42:37.000Z</time>
        <extensions>
          <visugpx:TrkExtension xmlns:visugpx="https://www.visugpx.com/editgpx/">
            <visugpx:node>1</visugpx:node>
            </visugpx:TrkExtension>
        </extensions>
      </trkpt>
    </trkseg>
  </trk>
</gpx>